Time;durP1;ratioP1;P1;durP2;ratioP2;P2;SDS_P1;SDS_P2;PMS_P1;PMS_P2;Temp;Humidity;BMP_temperature;BMP_pressure;BME280_temperature;BME280_humidity;BME280_pressure;Samples;Min_cycle;Max_cycle;Signal;HPM_P1;HPM_P2
2023/03/15 00:01:11;;;;;;;0.55;0.55;;;3.00;99.90;;;;;;4389992;32;20121;-67
2023/03/15 00:03:37;;;;;;;0.40;0.40;;;3.00;99.90;;;;;;4390499;32;20074;-67
2023/03/15 00:06:03;;;;;;;0.77;0.77;;;3.00;99.90;;;;;;4392834;32;20488;-67
2023/03/15 00:08:32;;;;;;;0.30;0.30;;;3.00;99.90;;;;;;4391731;32;20069;-67
2023/03/15 00:10:58;;;;;;;0.40;0.40;;;3.00;99.90;;;;;;4388751;32;20140;-68
2023/03/15 00:13:23;;;;;;;2.40;1.62;;;3.00;99.90;;;;;;4390709;32;20118;-67
2023/03/15 00:15:52;;;;;;;0.40;0.40;;;3.00;99.90;;;;;;4390444;32;20509;-68
2023/03/15 00:18:19;;;;;;;0.60;0.60;;;2.90;99.90;;;;;;4389817;32;20121;-67
2023/03/15 00:20:46;;;;;;;0.40;0.40;;;2.90;99.90;;;;;;4390632;32;20454;-67
2023/03/15 00:23:12;;;;;;;0.60;0.60;;;2.90;99.90;;;;;;4387919;32;20455;-68
2023/03/15 00:25:37;;;;;;;0.65;0.65;;;2.90;99.90;;;;;;4389180;32;20078;-68
2023/03/15 00:28:04;;;;;;;0.52;0.52;;;2.90;99.90;;;;;;4390032;32;20474;-68
2023/03/15 00:30:29;;;;;;;0.40;0.40;;;2.90;99.90;;;;;;4390398;32;20097;-68
2023/03/15 00:32:55;;;;;;;0.35;0.35;;;2.90;99.90;;;;;;4390655;32;20082;-66
2023/03/15 00:35:22;;;;;;;0.45;0.45;;;2.90;99.90;;;;;;4390080;32;20113;-68
2023/03/15 00:37:48;;;;;;;0.40;0.40;;;2.90;99.90;;;;;;4388215;32;20081;-68
2023/03/15 00:40:14;;;;;;;0.95;0.88;;;2.90;99.90;;;;;;4389709;32;20102;-68
2023/03/15 00:42:40;;;;;;;0.30;0.30;;;2.90;99.90;;;;;;4389568;32;20090;-67
2023/03/15 00:45:06;;;;;;;0.90;0.75;;;2.90;99.90;;;;;;4390188;32;20073;-67
2023/03/15 00:47:32;;;;;;;0.57;0.57;;;2.90;99.90;;;;;;4389394;32;20078;-68
2023/03/15 00:49:57;;;;;;;1.75;1.25;;;2.90;99.90;;;;;;4389913;32;20448;-66
2023/03/15 00:52:23;;;;;;;0.50;0.50;;;2.80;99.90;;;;;;4388498;32;20730;-67
2023/03/15 00:54:52;;;;;;;1.35;1.08;;;2.80;99.90;;;;;;4391094;32;21184;-67
2023/03/15 00:57:18;;;;;;;0.40;0.40;;;2.80;99.90;;;;;;4389437;32;20137;-68
2023/03/15 00:59:45;;;;;;;0.30;0.30;;;2.70;99.90;;;;;;4392202;32;20127;-66
2023/03/15 01:02:10;;;;;;;0.30;0.30;;;2.70;99.90;;;;;;4390110;32;20078;-66
2023/03/15 01:04:36;;;;;;;1.08;0.93;;;2.70;99.90;;;;;;4388795;32;20081;-68
2023/03/15 01:07:01;;;;;;;0.40;0.40;;;2.70;99.90;;;;;;4390888;32;20077;-68
2023/03/15 01:09:27;;;;;;;0.40;0.40;;;2.70;99.90;;;;;;4388839;32;20530;-67
2023/03/15 01:11:52;;;;;;;1.00;0.60;;;2.70;99.90;;;;;;4390177;32;20554;-66
2023/03/15 01:14:18;;;;;;;0.40;0.40;;;2.70;99.90;;;;;;4390145;32;20090;-67
2023/03/15 01:16:45;;;;;;;0.40;0.40;;;2.60;99.90;;;;;;4389796;32;20538;-65
2023/03/15 01:19:11;;;;;;;0.50;0.50;;;2.70;99.90;;;;;;4389088;32;20063;-67
2023/03/15 01:21:38;;;;;;;0.93;0.93;;;2.60;99.90;;;;;;4389065;32;20140;-68
2023/03/15 01:24:03;;;;;;;0.35;0.35;;;2.60;99.90;;;;;;4388998;32;20074;-67
2023/03/15 01:26:29;;;;;;;1.55;1.12;;;2.50;99.90;;;;;;4387667;32;20086;-67
2023/03/15 01:28:54;;;;;;;0.40;0.40;;;2.50;99.90;;;;;;4389042;32;20572;-67
2023/03/15 01:31:22;;;;;;;0.40;0.40;;;2.50;99.90;;;;;;4390355;32;20097;-68
2023/03/15 01:33:47;;;;;;;1.37;0.73;;;2.60;99.90;;;;;;4391603;32;20165;-65
2023/03/15 01:36:13;;;;;;;0.55;0.55;;;2.60;99.90;;;;;;4391159;32;20440;-68
2023/03/15 01:38:39;;;;;;;0.40;0.40;;;2.50;99.90;;;;;;4391916;32;20074;-68
2023/03/15 01:41:05;;;;;;;0.45;0.45;;;2.50;99.90;;;;;;4390539;32;20101;-68
2023/03/15 01:43:31;;;;;;;0.52;0.52;;;2.40;99.90;;;;;;4390213;32;20066;-67
2023/03/15 01:46:02;;;;;;;0.73;0.73;;;2.50;99.90;;;;;;4391909;32;20073;-68
2023/03/15 01:48:29;;;;;;;;;;;2.40;99.90;;;;;;4392689;32;20074;-67
2023/03/15 01:50:56;;;;;;;0.40;0.40;;;2.40;99.90;;;;;;4392715;32;19976;-67
2023/03/15 01:53:24;;;;;;;0.50;0.50;;;2.40;99.90;;;;;;4391515;32;21375;-67
2023/03/15 01:55:52;;;;;;;0.40;0.40;;;2.40;99.90;;;;;;4393530;32;20066;-67
2023/03/15 01:58:20;;;;;;;0.40;0.40;;;2.40;99.90;;;;;;4391753;32;20086;-68
2023/03/15 02:00:45;;;;;;;0.40;0.40;;;2.40;99.90;;;;;;4392924;32;20106;-68
2023/03/15 02:03:14;;;;;;;1.87;1.15;;;2.30;99.90;;;;;;4390098;32;20525;-67
2023/03/15 02:05:45;;;;;;;3.45;0.82;;;2.30;99.90;;;;;;4389370;32;21189;-66
2023/03/15 02:08:11;;;;;;;3.22;1.37;;;2.30;99.90;;;;;;4391715;32;20284;-67
2023/03/15 02:10:42;;;;;;;0.40;0.40;;;2.30;99.90;;;;;;4392113;32;20147;-68
2023/03/15 02:13:10;;;;;;;0.40;0.40;;;2.30;99.90;;;;;;4389487;32;20078;-67
2023/03/15 02:15:35;;;;;;;0.93;0.88;;;2.30;99.90;;;;;;4388322;32;20070;-67
2023/03/15 02:18:00;;;;;;;1.15;1.05;;;2.30;99.90;;;;;;4391688;32;20090;-68
2023/03/15 02:20:48;;;;;;;0.40;0.40;;;2.30;99.90;;;;;;4392309;32;20122;-67
2023/03/15 02:23:18;;;;;;;0.40;0.40;;;2.20;99.90;;;;;;4390641;32;20589;-68
2023/03/15 02:26:08;;;;;;;0.52;0.52;;;2.20;99.90;;;;;;4389654;32;20070;-69
2023/03/15 02:28:34;;;;;;;0.40;0.40;;;2.20;99.90;;;;;;4390158;32;20094;-66
2023/03/15 02:31:00;;;;;;;6.12;1.30;;;2.20;99.90;;;;;;4391109;32;20518;-68
2023/03/15 02:33:30;;;;;;;0.40;0.40;;;2.10;99.90;;;;;;4390639;32;20125;-67
2023/03/15 02:36:07;;;;;;;0.40;0.40;;;2.10;99.90;;;;;;4391773;32;20062;-69
2023/03/15 02:38:33;;;;;;;0.40;0.40;;;2.10;99.90;;;;;;4390451;32;20102;-66
2023/03/15 02:40:59;;;;;;;0.50;0.50;;;2.00;99.90;;;;;;4378874;32;20061;-66
2023/03/15 02:43:29;;;;;;;0.30;0.30;;;2.00;99.90;;;;;;4387644;32;20058;-67
2023/03/15 02:45:55;;;;;;;0.95;0.80;;;2.00;99.90;;;;;;4387377;32;20590;-67
2023/03/15 02:48:21;;;;;;;0.47;0.47;;;2.00;99.90;;;;;;4388607;32;20074;-67
2023/03/15 02:50:46;;;;;;;0.50;0.50;;;2.00;99.90;;;;;;4391551;32;20589;-67
2023/03/15 02:53:12;;;;;;;0.60;0.60;;;1.90;99.90;;;;;;4393470;32;20142;-67
2023/03/15 02:55:38;;;;;;;0.40;0.40;;;1.90;99.90;;;;;;4390266;32;20585;-67
2023/03/15 02:58:04;;;;;;;0.40;0.40;;;2.00;99.90;;;;;;4389777;32;20102;-66
2023/03/15 03:00:29;;;;;;;0.50;0.50;;;1.90;99.90;;;;;;4390298;32;20488;-67
2023/03/15 03:02:56;;;;;;;0.50;0.50;;;1.80;99.90;;;;;;4389601;32;20106;-67
2023/03/15 03:05:22;;;;;;;0.40;0.40;;;1.80;99.90;;;;;;4391635;32;20100;-67
2023/03/15 03:07:49;;;;;;;0.40;0.40;;;1.90;99.90;;;;;;4390960;32;20058;-67
2023/03/15 03:10:17;;;;;;;0.40;0.40;;;2.00;99.90;;;;;;4392962;32;20074;-67
2023/03/15 03:12:43;;;;;;;0.70;0.70;;;2.00;99.90;;;;;;4391895;32;20455;-65
2023/03/15 03:15:10;;;;;;;1.85;1.50;;;2.00;99.90;;;;;;4390441;32;20085;-65
2023/03/15 03:17:36;;;;;;;0.40;0.40;;;2.00;99.90;;;;;;4389252;32;20062;-66
2023/03/15 03:20:06;;;;;;;0.40;0.40;;;1.90;99.90;;;;;;4391413;32;20533;-67
2023/03/15 03:22:32;;;;;;;1.10;0.88;;;2.00;99.90;;;;;;4389022;32;20584;-66
2023/03/15 03:24:58;;;;;;;0.40;0.40;;;2.00;99.90;;;;;;4389357;32;20150;-66
2023/03/15 03:27:23;;;;;;;0.35;0.35;;;2.10;99.90;;;;;;4391788;32;20446;-66
2023/03/15 03:29:49;;;;;;;0.40;0.40;;;2.00;99.90;;;;;;4388850;32;20475;-66
2023/03/15 03:32:15;;;;;;;0.40;0.40;;;1.80;99.90;;;;;;4390070;32;20103;-67
2023/03/15 03:34:40;;;;;;;0.40;0.40;;;1.80;99.90;;;;;;4390781;32;20570;-66
2023/03/15 03:37:06;;;;;;;3.12;1.80;;;1.90;99.90;;;;;;4389465;32;20137;-66
2023/03/15 03:39:32;;;;;;;0.40;0.40;;;1.90;99.90;;;;;;4387542;32;20093;-66
2023/03/15 03:41:57;;;;;;;0.93;0.93;;;1.80;99.90;;;;;;4389635;32;20094;-65
2023/03/15 03:44:23;;;;;;;0.45;0.45;;;1.80;99.90;;;;;;4390818;32;20549;-66
2023/03/15 03:46:48;;;;;;;0.50;0.50;;;1.90;99.90;;;;;;4389447;32;20091;-67
2023/03/15 03:49:14;;;;;;;3.05;1.50;;;1.90;99.90;;;;;;4391786;32;20098;-66
2023/03/15 03:51:40;;;;;;;3.60;1.52;;;1.90;99.90;;;;;;4388957;32;20098;-68
2023/03/15 03:54:05;;;;;;;0.77;0.77;;;1.90;99.90;;;;;;4392028;32;20074;-68
2023/03/15 03:56:31;;;;;;;0.43;0.43;;;1.90;99.90;;;;;;4389285;32;20313;-67
2023/03/15 03:58:56;;;;;;;0.70;0.70;;;1.80;99.90;;;;;;4389725;32;20667;-68
2023/03/15 04:01:22;;;;;;;2.80;0.95;;;1.70;99.90;;;;;;4390750;32;20183;-65
2023/03/15 04:03:48;;;;;;;1.20;1.10;;;1.80;99.90;;;;;;4391905;32;20577;-66
2023/03/15 04:06:14;;;;;;;4.25;2.00;;;1.80;99.90;;;;;;4390319;32;20078;-65
2023/03/15 04:08:40;;;;;;;1.20;1.02;;;1.80;99.90;;;;;;4391268;32;20188;-68
2023/03/15 04:11:06;;;;;;;0.60;0.60;;;1.60;99.90;;;;;;4388891;32;20134;-68
2023/03/15 04:13:31;;;;;;;0.40;0.40;;;1.60;99.90;;;;;;4390604;32;20498;-67
2023/03/15 04:16:00;;;;;;;0.50;0.50;;;1.70;99.90;;;;;;4392526;32;20125;-67
2023/03/15 04:18:25;;;;;;;0.60;0.60;;;1.70;99.90;;;;;;4391204;32;20066;-67
2023/03/15 04:20:53;;;;;;;0.50;0.50;;;1.70;99.90;;;;;;4391507;32;20066;-66
2023/03/15 04:23:20;;;;;;;1.25;1.20;;;1.70;99.90;;;;;;4392296;32;20153;-64
2023/03/15 04:25:48;;;;;;;0.70;0.70;;;1.70;99.90;;;;;;4389868;32;20094;-67
2023/03/15 04:28:14;;;;;;;0.30;0.30;;;1.60;99.90;;;;;;4388252;32;20093;-66
2023/03/15 04:30:41;;;;;;;9.80;2.47;;;1.50;99.90;;;;;;4389787;32;20133;-65
2023/03/15 04:33:08;;;;;;;0.40;0.40;;;1.40;99.90;;;;;;4390259;32;20070;-67
2023/03/15 04:35:36;;;;;;;0.40;0.40;;;1.30;99.90;;;;;;4388569;32;20094;-66
2023/03/15 04:38:02;;;;;;;0.50;0.50;;;1.40;99.90;;;;;;4390403;32;20157;-67
2023/03/15 04:40:33;;;;;;;0.40;0.40;;;1.40;99.90;;;;;;4389389;32;20106;-67
2023/03/15 04:43:00;;;;;;;3.97;1.55;;;1.50;99.90;;;;;;4390080;32;20198;-65
2023/03/15 04:45:26;;;;;;;0.30;0.30;;;1.40;99.90;;;;;;4390235;32;20666;-68
2023/03/15 04:47:52;;;;;;;2.50;1.52;;;1.50;99.90;;;;;;4391776;32;20125;-66
2023/03/15 04:50:19;;;;;;;0.30;0.30;;;1.60;99.90;;;;;;4389470;32;20407;-67
2023/03/15 04:52:45;;;;;;;0.50;0.50;;;1.70;99.90;;;;;;4390128;32;20129;-68
2023/03/15 04:55:11;;;;;;;0.40;0.40;;;1.60;99.90;;;;;;4389918;32;20094;-68
2023/03/15 04:57:37;;;;;;;1.08;1.08;;;1.50;99.90;;;;;;4390032;32;20070;-66
2023/03/15 05:00:07;;;;;;;1.37;1.02;;;1.40;99.90;;;;;;4390776;32;20143;-67
2023/03/15 05:02:33;;;;;;;0.93;0.85;;;1.50;99.90;;;;;;4392973;32;20106;-64
2023/03/15 05:04:58;;;;;;;0.50;0.50;;;1.50;99.90;;;;;;4391462;32;20156;-64
2023/03/15 05:07:24;;;;;;;0.52;0.52;;;1.40;99.90;;;;;;4393021;32;20125;-67
2023/03/15 05:09:50;;;;;;;0.40;0.40;;;1.50;99.90;;;;;;4393245;32;20075;-65
2023/03/15 05:12:15;;;;;;;0.50;0.50;;;1.50;99.90;;;;;;4393804;32;20315;-66
2023/03/15 05:14:41;;;;;;;0.40;0.40;;;1.50;99.90;;;;;;4395213;32;20069;-67
2023/03/15 05:17:06;;;;;;;2.17;1.87;;;1.40;99.90;;;;;;4391987;32;20090;-66
2023/03/15 05:19:33;;;;;;;0.40;0.40;;;1.50;99.90;;;;;;4391738;32;20083;-67
2023/03/15 05:21:59;;;;;;;0.50;0.50;;;1.40;99.90;;;;;;4384591;32;20107;-67
2023/03/15 05:24:25;;;;;;;0.45;0.45;;;1.40;99.90;;;;;;4390201;32;20114;-67
2023/03/15 05:26:53;;;;;;;0.88;0.45;;;1.50;99.90;;;;;;4392471;32;20062;-67
2023/03/15 05:29:20;;;;;;;0.77;0.77;;;1.50;99.90;;;;;;4394645;32;20078;-67
2023/03/15 05:31:46;;;;;;;0.50;0.50;;;1.50;99.90;;;;;;4391686;32;20081;-67
2023/03/15 05:34:12;;;;;;;1.62;1.25;;;1.50;99.90;;;;;;4393635;32;20098;-67
2023/03/15 05:36:39;;;;;;;0.40;0.40;;;1.50;99.90;;;;;;4393981;32;20066;-66
2023/03/15 05:39:04;;;;;;;2.08;1.00;;;1.50;99.90;;;;;;4395671;32;20087;-67
2023/03/15 05:41:30;;;;;;;0.40;0.40;;;1.60;99.90;;;;;;4392355;32;20085;-68
2023/03/15 05:43:56;;;;;;;0.43;0.43;;;1.60;99.90;;;;;;4394657;32;20189;-67
2023/03/15 05:46:22;;;;;;;0.68;0.68;;;1.60;99.90;;;;;;4393343;32;20086;-66
2023/03/15 05:48:48;;;;;;;0.40;0.40;;;1.70;99.90;;;;;;4393476;32;20340;-67
2023/03/15 05:51:14;;;;;;;0.75;0.75;;;1.60;99.90;;;;;;4390625;32;20133;-67
2023/03/15 05:53:39;;;;;;;0.80;0.80;;;1.60;99.90;;;;;;4394087;32;20082;-66
2023/03/15 05:56:05;;;;;;;0.40;0.40;;;1.70;99.90;;;;;;4392356;32;20146;-68
2023/03/15 05:58:31;;;;;;;0.50;0.50;;;1.70;99.90;;;;;;4390956;32;20119;-68
2023/03/15 06:00:56;;;;;;;0.40;0.40;;;1.70;99.90;;;;;;4387640;32;20062;-67
2023/03/15 06:03:22;;;;;;;8.65;2.95;;;1.80;99.90;;;;;;4387699;32;20428;-67
2023/03/15 06:05:47;;;;;;;0.40;0.40;;;1.80;99.90;;;;;;4388988;32;20069;-64
2023/03/15 06:08:13;;;;;;;0.52;0.52;;;1.80;99.90;;;;;;4390610;32;20143;-67
2023/03/15 06:10:38;;;;;;;0.30;0.30;;;1.80;99.90;;;;;;4390461;32;20159;-67
2023/03/15 06:13:04;;;;;;;0.40;0.40;;;1.90;99.90;;;;;;4390964;32;20069;-66
2023/03/15 06:15:30;;;;;;;0.47;0.47;;;1.90;99.90;;;;;;4392207;32;20090;-66
2023/03/15 06:17:56;;;;;;;0.40;0.40;;;1.80;99.90;;;;;;4376827;32;20608;-67
2023/03/15 06:20:22;;;;;;;0.50;0.50;;;1.80;99.90;;;;;;4389551;32;20157;-67
2023/03/15 06:22:47;;;;;;;0.40;0.40;;;1.80;99.90;;;;;;4390304;32;20155;-67
2023/03/15 06:25:13;;;;;;;0.60;0.60;;;2.00;99.90;;;;;;4384844;32;20111;-66
2023/03/15 06:27:38;;;;;;;0.57;0.57;;;2.00;99.90;;;;;;4374353;32;20170;-66
2023/03/15 06:30:05;;;;;;;0.40;0.40;;;2.00;99.90;;;;;;4377312;32;20102;-65
2023/03/15 06:32:30;;;;;;;4.55;1.95;;;2.00;99.90;;;;;;4361202;32;20476;-67
2023/03/15 06:34:56;;;;;;;1.02;0.93;;;2.00;99.90;;;;;;4383189;32;20074;-67
2023/03/15 06:37:21;;;;;;;4.45;3.03;;;2.00;99.90;;;;;;4379663;32;20086;-67
2023/03/15 06:39:49;;;;;;;0.40;0.40;;;2.10;99.90;;;;;;4388251;32;20114;-68
2023/03/15 06:42:16;;;;;;;0.40;0.40;;;2.10;99.90;;;;;;4384990;32;20162;-67
2023/03/15 06:44:42;;;;;;;0.30;0.30;;;2.20;99.90;;;;;;4370772;32;20458;-65
2023/03/15 06:47:09;;;;;;;0.57;0.57;;;2.30;99.90;;;;;;4373661;32;20124;-66
2023/03/15 06:49:36;;;;;;;0.40;0.40;;;2.30;99.90;;;;;;4375991;32;20181;-68
2023/03/15 06:52:02;;;;;;;1.30;1.10;;;2.30;99.90;;;;;;4374407;32;20082;-68
2023/03/15 06:54:28;;;;;;;0.40;0.40;;;2.30;99.90;;;;;;4364332;32;20117;-66
2023/03/15 06:56:53;;;;;;;7.78;1.08;;;2.40;99.90;;;;;;4355466;32;20514;-66
2023/03/15 06:59:19;;;;;;;0.60;0.60;;;2.40;99.90;;;;;;4344361;32;20153;-63
2023/03/15 07:01:44;;;;;;;1.37;1.12;;;2.50;99.90;;;;;;4342973;32;20194;-64
2023/03/15 07:04:11;;;;;;;0.43;0.43;;;2.60;99.90;;;;;;4349654;32;20089;-65
2023/03/15 07:06:36;;;;;;;2.62;0.73;;;2.60;99.90;;;;;;4351265;32;20102;-65
2023/03/15 07:09:04;;;;;;;0.88;0.88;;;2.60;99.90;;;;;;4344825;32;20852;-66
2023/03/15 07:11:29;;;;;;;0.40;0.40;;;2.80;99.90;;;;;;4348977;32;20109;-66
2023/03/15 07:13:55;;;;;;;0.30;0.30;;;2.80;99.90;;;;;;4350751;32;20189;-66
2023/03/15 07:16:20;;;;;;;0.30;0.30;;;3.00;99.90;;;;;;4350168;32;20459;-64
2023/03/15 07:18:46;;;;;;;3.40;1.67;;;2.90;99.90;;;;;;4350273;32;21198;-66
2023/03/15 07:21:11;;;;;;;0.30;0.30;;;2.90;99.90;;;;;;4350293;32;20514;-65
2023/03/15 07:23:37;;;;;;;0.30;0.30;;;2.90;99.90;;;;;;4360698;32;20109;-66
2023/03/15 07:26:03;;;;;;;0.98;0.98;;;2.90;99.90;;;;;;4347799;32;20667;-66
2023/03/15 07:28:28;;;;;;;0.85;0.85;;;2.90;99.90;;;;;;4360772;32;20114;-66
2023/03/15 07:30:57;;;;;;;1.67;0.95;;;3.00;99.90;;;;;;4359856;32;20156;-66
2023/03/15 07:33:23;;;;;;;0.40;0.40;;;3.20;99.90;;;;;;4354956;32;20227;-67
2023/03/15 07:35:52;;;;;;;0.45;0.45;;;3.20;99.90;;;;;;4360739;32;20274;-67
2023/03/15 07:38:18;;;;;;;0.40;0.40;;;3.20;99.90;;;;;;4348382;32;20408;-66
2023/03/15 07:40:44;;;;;;;0.60;0.60;;;3.20;99.90;;;;;;4354786;32;20900;-65
2023/03/15 07:43:09;;;;;;;0.50;0.50;;;3.30;99.90;;;;;;4348844;32;20117;-66
2023/03/15 07:45:35;;;;;;;0.45;0.45;;;3.40;99.90;;;;;;4361121;32;20083;-65
2023/03/15 07:48:00;;;;;;;1.58;1.45;;;3.40;99.90;;;;;;4355490;32;20427;-65
2023/03/15 07:50:26;;;;;;;0.60;0.60;;;3.50;99.90;;;;;;4360173;32;21265;-66
2023/03/15 07:52:52;;;;;;;0.60;0.60;;;3.50;99.90;;;;;;4355679;32;21600;-65
2023/03/15 07:55:17;;;;;;;0.40;0.40;;;3.60;99.90;;;;;;4347690;32;20074;-66
2023/03/15 07:57:43;;;;;;;0.40;0.40;;;3.60;99.90;;;;;;4359298;32;20455;-65
2023/03/15 08:00:12;;;;;;;2.67;1.15;;;3.60;99.90;;;;;;4351508;32;20098;-66
2023/03/15 08:02:38;;;;;;;0.40;0.40;;;3.70;99.90;;;;;;4356533;32;20101;-66
2023/03/15 08:05:04;;;;;;;0.50;0.50;;;3.80;99.90;;;;;;4351472;32;20617;-65
2023/03/15 08:07:30;;;;;;;0.60;0.60;;;3.80;99.90;;;;;;4352946;32;20187;-66
2023/03/15 08:09:57;;;;;;;3.65;0.82;;;3.80;99.90;;;;;;4350610;32;20950;-66
2023/03/15 08:12:23;;;;;;;0.50;0.50;;;3.80;99.90;;;;;;4353159;32;20106;-65
2023/03/15 08:14:50;;;;;;;0.68;0.68;;;3.80;99.90;;;;;;4355561;32;20078;-66
2023/03/15 08:17:16;;;;;;;0.70;0.70;;;3.80;99.90;;;;;;4355833;32;20210;-66
2023/03/15 08:19:42;;;;;;;0.60;0.60;;;3.80;99.90;;;;;;4353618;32;20090;-65
2023/03/15 08:22:08;;;;;;;0.70;0.70;;;3.90;99.90;;;;;;4354674;32;20089;-66
2023/03/15 08:24:34;;;;;;;51.30;1.80;;;3.90;99.90;;;;;;4380978;27;20133;-73
2023/03/15 08:27:00;;;;;;;0.40;0.40;;;4.00;99.90;;;;;;4378342;32;20772;-73
2023/03/15 08:29:26;;;;;;;0.60;0.60;;;4.00;99.90;;;;;;4373999;32;20097;-73
2023/03/15 08:31:52;;;;;;;0.50;0.50;;;4.00;99.90;;;;;;4365198;32;20116;-75
2023/03/15 08:34:17;;;;;;;0.40;0.40;;;4.20;99.90;;;;;;4376845;32;20130;-74
2023/03/15 08:36:46;;;;;;;0.77;0.77;;;4.20;99.90;;;;;;4382513;32;20121;-73
2023/03/15 08:39:11;;;;;;;0.50;0.50;;;4.40;99.90;;;;;;4389020;32;20081;-75
2023/03/15 08:41:37;;;;;;;0.32;0.32;;;4.30;99.90;;;;;;4390182;32;20439;-75
2023/03/15 08:44:02;;;;;;;0.60;0.60;;;4.30;99.90;;;;;;4391416;32;20506;-76
2023/03/15 08:46:28;;;;;;;0.82;0.82;;;4.40;99.90;;;;;;4388920;32;20098;-75
2023/03/15 08:48:54;;;;;;;0.30;0.30;;;4.50;99.90;;;;;;4374829;32;21508;-73
2023/03/15 08:51:20;;;;;;;3.15;1.20;;;4.50;99.90;;;;;;4374848;32;20143;-75
2023/03/15 08:53:46;;;;;;;0.40;0.40;;;4.50;99.90;;;;;;4375988;32;20109;-74
2023/03/15 08:56:12;;;;;;;1.17;0.80;;;4.40;99.90;;;;;;4374752;32;20090;-75
2023/03/15 08:58:37;;;;;;;0.60;0.60;;;4.40;99.90;;;;;;4382714;32;20168;-75
2023/03/15 09:01:03;;;;;;;0.40;0.40;;;4.40;99.90;;;;;;4393522;32;20615;-75
2023/03/15 09:03:31;;;;;;;0.55;0.55;;;4.40;99.90;;;;;;4386742;32;20093;-75
2023/03/15 09:05:58;;;;;;;0.90;0.90;;;4.40;99.90;;;;;;4374968;32;20156;-76
2023/03/15 09:08:25;;;;;;;0.40;0.40;;;4.40;99.90;;;;;;4373688;32;20114;-75
2023/03/15 09:10:54;;;;;;;0.40;0.40;;;4.30;99.90;;;;;;4364260;32;20889;-75
2023/03/15 09:13:20;;;;;;;0.40;0.40;;;4.20;99.90;;;;;;4364383;32;20105;-74
2023/03/15 09:15:50;;;;;;;0.57;0.57;;;4.20;99.90;;;;;;4370266;32;21491;-76
2023/03/15 09:18:16;;;;;;;0.50;0.50;;;4.20;99.90;;;;;;4375612;32;20078;-75
2023/03/15 09:20:41;;;;;;;0.65;0.65;;;4.30;99.90;;;;;;4374324;32;20097;-76
2023/03/15 09:23:07;;;;;;;0.30;0.30;;;4.30;99.90;;;;;;4378173;32;21374;-75
2023/03/15 09:25:32;;;;;;;0.45;0.45;;;4.50;99.90;;;;;;4367977;32;20913;-75
2023/03/15 09:27:58;;;;;;;0.30;0.30;;;4.50;99.90;;;;;;4373283;32;20074;-75
2023/03/15 09:30:23;;;;;;;0.40;0.40;;;4.60;99.90;;;;;;4372582;32;20223;-74
2023/03/15 09:32:50;;;;;;;0.40;0.40;;;4.40;99.90;;;;;;4370432;32;20133;-76
2023/03/15 09:35:18;;;;;;;0.35;0.35;;;4.50;99.90;;;;;;4365781;32;20669;-75
2023/03/15 09:37:44;;;;;;;0.80;0.80;;;4.70;99.90;;;;;;4368372;32;20750;-76
2023/03/15 09:40:17;;;;;;;2.05;1.50;;;5.00;99.90;;;;;;4370817;32;20545;-75
2023/03/15 09:43:10;;;;;;;1.12;1.05;;;5.30;99.90;;;;;;4369703;32;20152;-74
2023/03/15 09:46:16;;;;;;;1.60;1.02;;;5.50;99.90;;;;;;4372782;32;21032;-74
2023/03/15 09:49:06;;;;;;;0.30;0.30;;;5.60;99.90;;;;;;4360127;32;20130;-75
2023/03/15 09:51:54;;;;;;;0.40;0.40;;;5.50;99.90;;;;;;4366718;32;20073;-75
2023/03/15 09:54:28;;;;;;;0.47;0.47;;;5.50;99.90;;;;;;4372442;32;20675;-74
2023/03/15 09:57:00;;;;;;;0.30;0.30;;;5.30;99.90;;;;;;4361978;32;21838;-76
2023/03/15 09:59:33;;;;;;;0.62;0.62;;;5.20;99.90;;;;;;4365324;32;21019;-73
2023/03/15 10:02:02;;;;;;;0.37;0.37;;;5.10;99.90;;;;;;4368881;32;20233;-74
2023/03/15 10:04:33;;;;;;;0.30;0.30;;;5.00;99.90;;;;;;4363969;32;20160;-74
2023/03/15 10:07:00;;;;;;;;;;;5.00;99.90;;;;;;4374081;32;20097;-74
2023/03/15 10:09:31;;;;;;;0.45;0.45;;;5.00;99.90;;;;;;4373800;32;20442;-74
2023/03/15 10:12:04;;;;;;;0.50;0.50;;;4.90;99.90;;;;;;4367313;32;20081;-75
2023/03/15 10:14:58;;;;;;;0.40;0.40;;;5.20;99.90;;;;;;4360526;32;20254;-79
2023/03/15 10:17:35;;;;;;;3.72;1.58;;;5.40;99.90;;;;;;4365067;32;20121;-73
2023/03/15 10:20:08;;;;;;;0.40;0.40;;;5.80;99.90;;;;;;4360063;32;20101;-72
2023/03/15 10:22:43;;;;;;;0.40;0.40;;;6.00;99.90;;;;;;4362556;32;20217;-73
2023/03/15 10:25:16;;;;;;;1.25;0.77;;;6.10;99.90;;;;;;4364453;32;20101;-74
2023/03/15 10:27:53;;;;;;;0.30;0.30;;;6.10;99.90;;;;;;4358734;32;20518;-72
2023/03/15 10:30:25;;;;;;;0.40;0.40;;;6.10;99.90;;;;;;4360351;32;20998;-75
2023/03/15 10:32:57;;;;;;;0.50;0.50;;;6.30;99.90;;;;;;4371741;32;20077;-74
2023/03/15 10:35:23;;;;;;;0.37;0.37;;;6.40;99.90;;;;;;4361926;32;20761;-73
2023/03/15 10:37:49;;;;;;;0.30;0.30;;;6.50;99.90;;;;;;4371017;32;20102;-71
2023/03/15 10:40:35;;;;;;;0.57;0.57;;;6.70;99.90;;;;;;4373450;32;20082;-72
2023/03/15 10:43:02;;;;;;;0.88;0.57;;;6.60;99.90;;;;;;4377435;32;20500;-74
2023/03/15 10:45:28;;;;;;;0.40;0.40;;;6.40;99.90;;;;;;4364012;32;26017;-73
2023/03/15 10:47:53;;;;;;;0.50;0.50;;;6.20;99.90;;;;;;4368111;32;20188;-73
2023/03/15 10:50:30;;;;;;;0.40;0.40;;;6.00;99.90;;;;;;4378732;32;20420;-72
2023/03/15 10:52:57;;;;;;;0.30;0.30;;;6.10;99.90;;;;;;4380885;32;20341;-73
2023/03/15 10:55:34;;;;;;;4.10;0.50;;;6.10;99.90;;;;;;4375710;32;20144;-73
2023/03/15 10:58:22;;;;;;;9.40;1.17;;;5.90;99.90;;;;;;4373338;32;20085;-75
2023/03/15 11:00:51;;;;;;;0.40;0.40;;;5.90;99.90;;;;;;4375247;32;20119;-73
2023/03/15 11:03:22;;;;;;;0.50;0.50;;;5.90;99.90;;;;;;4371297;32;20212;-75
2023/03/15 11:05:51;;;;;;;0.30;0.30;;;6.20;99.90;;;;;;4375189;32;20962;-73
2023/03/15 11:08:20;;;;;;;0.40;0.40;;;6.80;99.90;;;;;;4377186;32;20101;-72
2023/03/15 11:10:55;;;;;;;0.30;0.30;;;7.30;99.90;;;;;;4363612;32;20089;-72
2023/03/15 11:13:30;;;;;;;1.77;0.80;;;7.40;99.90;;;;;;4371075;32;20708;-73
2023/03/15 11:16:00;;;;;;;1.90;0.75;;;7.00;99.90;;;;;;4368640;32;20154;-73
2023/03/15 11:18:31;;;;;;;0.40;0.40;;;6.90;99.90;;;;;;4355224;32;20138;-74
2023/03/15 11:20:57;;;;;;;0.30;0.30;;;7.00;99.90;;;;;;4378621;32;20167;-74
2023/03/15 11:23:27;;;;;;;0.45;0.45;;;7.20;99.90;;;;;;4378672;32;20094;-72
2023/03/15 11:25:54;;;;;;;0.40;0.40;;;7.70;99.90;;;;;;4373569;32;20136;-76
2023/03/15 11:28:24;;;;;;;0.25;0.25;;;7.70;99.90;;;;;;4369399;32;20109;-74
2023/03/15 11:30:50;;;;;;;0.40;0.40;;;7.60;99.90;;;;;;4383891;32;20542;-76
2023/03/15 11:33:37;;;;;;;3.45;1.85;;;8.00;99.90;;;;;;4386904;32;20097;-75
2023/03/15 11:36:11;;;;;;;0.70;0.60;;;8.00;99.90;;;;;;4388551;32;20094;-75
2023/03/15 11:38:42;;;;;;;1.12;1.05;;;8.30;99.90;;;;;;4385190;32;20101;-74
2023/03/15 11:41:48;;;;;;;0.30;0.30;;;9.10;99.90;;;;;;4389402;32;20159;-73
2023/03/15 11:44:50;;;;;;;0.40;0.40;;;9.10;99.90;;;;;;4365215;32;91466;-73
2023/03/15 11:47:31;;;;;;;0.55;0.55;;;8.80;99.90;;;;;;4369593;32;20244;-73
2023/03/15 11:49:57;;;;;;;0.40;0.40;;;8.80;99.90;;;;;;4383360;32;20094;-75
2023/03/15 11:52:28;;;;;;;0.60;0.55;;;8.60;99.90;;;;;;4375009;32;20105;-73
2023/03/15 11:54:57;;;;;;;1.98;1.40;;;8.40;99.90;;;;;;4362000;32;20201;-73
2023/03/15 11:57:42;;;;;;;0.35;0.35;;;8.00;99.90;;;;;;4361074;32;20113;-74
2023/03/15 12:00:26;;;;;;;0.30;0.30;;;7.60;99.90;;;;;;4362996;32;20090;-78
2023/03/15 12:02:56;;;;;;;2.67;1.15;;;7.70;99.90;;;;;;4376988;32;20875;-77
2023/03/15 12:05:44;;;;;;;0.30;0.30;;;8.30;99.90;;;;;;4368426;32;20100;-73
2023/03/15 12:08:23;;;;;;;2.97;1.42;;;8.90;99.90;;;;;;4374631;32;20085;-76
2023/03/15 12:10:50;;;;;;;0.40;0.40;;;9.40;99.90;;;;;;4378845;32;20741;-75
2023/03/15 12:13:21;;;;;;;0.30;0.30;;;9.90;99.90;;;;;;4365431;32;20292;-75
2023/03/15 12:15:48;;;;;;;0.43;0.43;;;10.30;99.90;;;;;;4366355;32;20082;-76
2023/03/15 12:18:16;;;;;;;0.32;0.32;;;11.00;99.90;;;;;;4374723;32;20144;-76
2023/03/15 12:20:50;;;;;;;0.45;0.45;;;10.90;99.90;;;;;;4376235;32;20094;-75
2023/03/15 12:23:18;;;;;;;0.30;0.30;;;10.80;99.90;;;;;;4372104;32;20901;-73
2023/03/15 12:26:06;;;;;;;0.40;0.40;;;10.70;99.90;;;;;;4364363;32;20513;-74
2023/03/15 12:28:48;;;;;;;0.52;0.52;;;10.60;99.90;;;;;;4369611;32;20092;-73
2023/03/15 12:31:14;;;;;;;0.35;0.35;;;10.70;99.90;;;;;;4367277;32;20098;-75
2023/03/15 12:33:50;;;;;;;1.27;1.05;;;10.80;99.90;;;;;;4363841;32;20108;-73
2023/03/15 12:36:36;;;;;;;0.40;0.40;;;10.40;99.90;;;;;;4363991;32;20243;-73
2023/03/15 12:39:20;;;;;;;0.70;0.70;;;9.50;99.90;;;;;;4374894;32;20439;-73
2023/03/15 12:41:48;;;;;;;0.35;0.35;;;9.60;99.90;;;;;;4369010;32;20090;-73
2023/03/15 12:44:37;;;;;;;0.50;0.50;;;10.40;99.90;;;;;;4372017;32;20094;-74
2023/03/15 12:47:05;;;;;;;0.65;0.65;;;10.80;98.60;;;;;;4349233;32;20089;-74
2023/03/15 12:49:34;;;;;;;0.30;0.30;;;10.40;99.90;;;;;;4360524;32;20082;-74
2023/03/15 12:52:12;;;;;;;0.30;0.30;;;10.70;99.70;;;;;;4364847;32;20904;-74
2023/03/15 12:54:52;;;;;;;0.30;0.30;;;11.00;99.30;;;;;;4364650;32;20968;-72
2023/03/15 12:57:21;;;;;;;0.40;0.40;;;10.90;99.60;;;;;;4358648;32;20086;-74
2023/03/15 13:00:00;;;;;;;0.30;0.30;;;10.70;98.60;;;;;;4361772;32;20129;-73
2023/03/15 13:02:35;;;;;;;0.80;0.80;;;10.80;97.40;;;;;;4359110;32;20327;-74
2023/03/15 13:05:15;;;;;;;2.37;0.85;;;10.70;98.20;;;;;;4370618;32;20163;-74